Greeley, Nebraska
Current Conditions -  °F | °C
As of 6:53 AM on Friday 24 Oct 2014 (Local Time) from KODX Reporting Station
Haze Haze  
Wind Chill: 45°   Ceiling: Unl
Heat Index: 47°   Visibility: 5mi
Dew Point: 47°   Wind: 5mph
Humidity: 100%   Direction: 230°SW
Pressure: 29.91"   Gusts: NA
Location:  41.55°N, 98.53°W
Report Text: KODX 241153Z AUTO 23004KT 5SM BR CLR 08/08 A2991 RMK AO2 SLP130 T00830083 10139 20061 56004 $
Loading
Personal Weather Stations






























Interactive Weather Map
Tropical Storm Tracking
New forecast layout! Learn more

10-Day Weather Forecast

Advertisements
Track Severe Weather on mobile